Sierra City, California
Current Conditions -  °F | °C
As of 4:52 AM on Sunday 21 Dec 2014 (Local Time) from KBLU Reporting Station
Light Rain Light Rain  
Wind Chill: 38°   Ceiling: 500
Heat Index: 42°   Visibility: 0.75mi
Dew Point: 40°   Wind: 6mph
Humidity: 92%   Direction: 140°SE
Pressure: 30.28"   Gusts: NA
Location:  39.57°N, 120.64°W
Report Text: KBLU 211252Z AUTO 14005KT 3/4SM -RA BR VV005 06/04 A3028 RMK AO2 RAE12B16 SLP243 P0004 T00560044
Loading
Personal Weather Stations






























Interactive Weather Map New forecast layout! Learn more

10-Day Weather Forecast

Advertisements
Track Severe Weather on mobile